<?xml version="1.0" encoding="UTF-8" standalone="no" ?>
<gpx xmlns="http://www.topografix.com/GPX/1/1" xmlns:xsi="http://www.w3.org/2001/XMLSchema-instance" xsi:schemaLocation="http://www.topografix.com/GPX/1/1 http://www.topografix.com/GPX/1/1/gpx.xsd" version="1.1" creator="VisuGPX - https://www.visugpx.com">
  <metadata>
    <name>Suède</name>
  </metadata>
  <trk>
    <name><![CDATA[Tour d'Europe: étape 105]]></name>
    <trkseg>
      <trkpt lat="60.4526" lon="17.51277">
        <ele>76.433366</ele>
        <time>2020-10-11T08:15:17.436Z</time>
      </trkpt>
      <trkpt lat="60.45064" lon="17.51116">
        <ele>71.49143</ele>
        <time>2020-10-11T08:22:35.444Z</time>
      </trkpt>
      <trkpt lat="60.44941" lon="17.50936">
        <ele>73.758681</ele>
        <time>2020-10-11T08:33:27.445Z</time>
      </trkpt>
      <trkpt lat="60.44862" lon="17.50567">
        <ele>79.966744</ele>
        <time>2020-10-11T08:34:59.439Z</time>
      </trkpt>
      <trkpt lat="60.44777" lon="17.50171">
        <ele>79.643013</ele>
        <time>2020-10-11T08:36:14.469Z</time>
      </trkpt>
      <trkpt lat="60.44694" lon="17.49785">
        <ele>76.536796</ele>
        <time>2020-10-11T08:37:32.469Z</time>
      </trkpt>
      <trkpt lat="60.44489" lon="17.49846">
        <ele>70.661059</ele>
        <time>2020-10-11T08:38:47.449Z</time>
      </trkpt>
      <trkpt lat="60.44293" lon="17.49803">
        <ele>71.578409</ele>
        <time>2020-10-11T08:40:08.432Z</time>
      </trkpt>
      <trkpt lat="60.44104" lon="17.49922">
        <ele>73.119379</ele>
        <time>2020-10-11T08:41:30.478Z</time>
      </trkpt>
      <trkpt lat="60.43915" lon="17.50094">
        <ele>74.391669</ele>
        <time>2020-10-11T08:42:52.445Z</time>
      </trkpt>
      <trkpt lat="60.43714" lon="17.50184">
        <ele>74.814222</ele>
        <time>2020-10-11T08:44:21.434Z</time>
      </trkpt>
      <trkpt lat="60.43502" lon="17.50233">
        <ele>74.810754</ele>
        <time>2020-10-11T08:45:51.482Z</time>
      </trkpt>
      <trkpt lat="60.433" lon="17.50219">
        <ele>73.889382</ele>
        <time>2020-10-11T08:47:08.480Z</time>
      </trkpt>
      <trkpt lat="60.43177" lon="17.50556">
        <ele>70.812156</ele>
        <time>2020-10-11T08:48:10.446Z</time>
      </trkpt>
      <trkpt lat="60.42998" lon="17.50805">
        <ele>74.40048</ele>
        <time>2020-10-11T08:49:04.471Z</time>
      </trkpt>
      <trkpt lat="60.4288" lon="17.51196">
        <ele>77.488916</ele>
        <time>2020-10-11T08:50:10.478Z</time>
      </trkpt>
      <trkpt lat="60.42829" lon="17.5157">
        <ele>77.729627</ele>
        <time>2020-10-11T08:50:50.436Z</time>
      </trkpt>
      <trkpt lat="60.42666" lon="17.51874">
        <ele>72.487098</ele>
        <time>2020-10-11T08:51:40.461Z</time>
      </trkpt>
      <trkpt lat="60.42597" lon="17.52256">
        <ele>70.174912</ele>
        <time>2020-10-11T08:52:26.445Z</time>
      </trkpt>
      <trkpt lat="60.42414" lon="17.52487">
        <ele>71.275651</ele>
        <time>2020-10-11T08:53:09.438Z</time>
      </trkpt>
      <trkpt lat="60.42336" lon="17.52874">
        <ele>70.820974</ele>
        <time>2020-10-11T08:53:58.438Z</time>
      </trkpt>
      <trkpt lat="60.42323" lon="17.53317">
        <ele>74.59051</ele>
        <time>2020-10-11T08:54:52.448Z</time>
      </trkpt>
      <trkpt lat="60.42176" lon="17.53627">
        <ele>72.108388</ele>
        <time>2020-10-11T08:55:41.438Z</time>
      </trkpt>
      <trkpt lat="60.42011" lon="17.53927">
        <ele>73.653138</ele>
        <time>2020-10-11T08:56:48.438Z</time>
      </trkpt>
      <trkpt lat="60.41881" lon="17.54248">
        <ele>73.531722</ele>
        <time>2020-10-11T08:57:47.474Z</time>
      </trkpt>
      <trkpt lat="60.41777" lon="17.54616">
        <ele>72.900807</ele>
        <time>2020-10-11T08:58:28.437Z</time>
      </trkpt>
      <trkpt lat="60.41631" lon="17.54928">
        <ele>82.546726</ele>
        <time>2020-10-11T08:59:12.479Z</time>
      </trkpt>
      <trkpt lat="60.4153" lon="17.55358">
        <ele>79.793558</ele>
        <time>2020-10-11T09:00:06.491Z</time>
      </trkpt>
      <trkpt lat="60.4144" lon="17.55782">
        <ele>67.803361</ele>
        <time>2020-10-11T09:00:54.462Z</time>
      </trkpt>
      <trkpt lat="60.4134" lon="17.56121">
        <ele>68.095158</ele>
        <time>2020-10-11T09:01:34.467Z</time>
      </trkpt>
      <trkpt lat="60.41154" lon="17.56285">
        <ele>64.843945</ele>
        <time>2020-10-11T09:02:15.446Z</time>
      </trkpt>
      <trkpt lat="60.41037" lon="17.56649">
        <ele>62.48195</ele>
        <time>2020-10-11T09:03:04.449Z</time>
      </trkpt>
      <trkpt lat="60.40902" lon="17.56997">
        <ele>70.248241</ele>
        <time>2020-10-11T09:03:52.451Z</time>
      </trkpt>
      <trkpt lat="60.40879" lon="17.57421">
        <ele>76.832417</ele>
        <time>2020-10-11T09:04:49.471Z</time>
      </trkpt>
      <trkpt lat="60.40784" lon="17.57799">
        <ele>69.363082</ele>
        <time>2020-10-11T09:05:35.457Z</time>
      </trkpt>
      <trkpt lat="60.40657" lon="17.58172">
        <ele>56.635926</ele>
        <time>2020-10-11T09:06:18.452Z</time>
      </trkpt>
      <trkpt lat="60.40426" lon="17.58218">
        <ele>56.495484</ele>
        <time>2020-10-11T09:07:20.433Z</time>
      </trkpt>
      <trkpt lat="60.40207" lon="17.58287">
        <ele>55.940974</ele>
        <time>2020-10-11T09:08:19.480Z</time>
      </trkpt>
      <trkpt lat="60.40085" lon="17.58565">
        <ele>55.405905</ele>
        <time>2020-10-11T09:09:23.476Z</time>
      </trkpt>
      <trkpt lat="60.39885" lon="17.5869">
        <ele>61.769171</ele>
        <time>2020-10-11T09:10:20.451Z</time>
      </trkpt>
      <trkpt lat="60.39732" lon="17.58982">
        <ele>62.270048</ele>
        <time>2020-10-11T09:11:08.437Z</time>
      </trkpt>
      <trkpt lat="60.39527" lon="17.59087">
        <ele>60.302233</ele>
        <time>2020-10-11T09:12:16.453Z</time>
      </trkpt>
      <trkpt lat="60.39364" lon="17.59299">
        <ele>64.118305</ele>
        <time>2020-10-11T09:13:23.464Z</time>
      </trkpt>
      <trkpt lat="60.3918" lon="17.5948">
        <ele>61.538343</ele>
        <time>2020-10-11T09:14:22.489Z</time>
      </trkpt>
      <trkpt lat="60.3898" lon="17.59629">
        <ele>63.730223</ele>
        <time>2020-10-11T09:15:29.449Z</time>
      </trkpt>
      <trkpt lat="60.38835" lon="17.59912">
        <ele>67.695662</ele>
        <time>2020-10-11T09:16:51.469Z</time>
      </trkpt>
      <trkpt lat="60.38763" lon="17.60338">
        <ele>71.310937</ele>
        <time>2020-10-11T09:18:03.452Z</time>
      </trkpt>
      <trkpt lat="60.38653" lon="17.60707">
        <ele>73.771782</ele>
        <time>2020-10-11T09:19:15.466Z</time>
      </trkpt>
      <trkpt lat="60.38628" lon="17.61159">
        <ele>72.286709</ele>
        <time>2020-10-11T09:20:12.454Z</time>
      </trkpt>
      <trkpt lat="60.38528" lon="17.61509">
        <ele>73.164999</ele>
        <time>2020-10-11T09:21:05.468Z</time>
      </trkpt>
      <trkpt lat="60.3841" lon="17.61837">
        <ele>77.962599</ele>
        <time>2020-10-11T09:22:11.468Z</time>
      </trkpt>
      <trkpt lat="60.3822" lon="17.6192">
        <ele>82.524193</ele>
        <time>2020-10-11T09:23:04.469Z</time>
      </trkpt>
      <trkpt lat="60.38038" lon="17.62095">
        <ele>81.396764</ele>
        <time>2020-10-11T09:23:48.452Z</time>
      </trkpt>
      <trkpt lat="60.37898" lon="17.6241">
        <ele>74.928678</ele>
        <time>2020-10-11T09:24:37.460Z</time>
      </trkpt>
      <trkpt lat="60.37807" lon="17.62748">
        <ele>70.265566</ele>
        <time>2020-10-11T09:25:23.455Z</time>
      </trkpt>
      <trkpt lat="60.37671" lon="17.63059">
        <ele>71.017376</ele>
        <time>2020-10-11T09:26:10.448Z</time>
      </trkpt>
      <trkpt lat="60.37506" lon="17.63285">
        <ele>73.226055</ele>
        <time>2020-10-11T09:26:57.447Z</time>
      </trkpt>
      <trkpt lat="60.37351" lon="17.63519">
        <ele>70.702801</ele>
        <time>2020-10-11T09:27:39.459Z</time>
      </trkpt>
      <trkpt lat="60.37137" lon="17.63636">
        <ele>72.371586</ele>
        <time>2020-10-11T09:28:38.459Z</time>
      </trkpt>
      <trkpt lat="60.36963" lon="17.63829">
        <ele>75.406716</ele>
        <time>2020-10-11T09:29:44.481Z</time>
      </trkpt>
      <trkpt lat="60.36846" lon="17.64221">
        <ele>74.57089</ele>
        <time>2020-10-11T09:30:38.441Z</time>
      </trkpt>
      <trkpt lat="60.36697" lon="17.64529">
        <ele>74.225946</ele>
        <time>2020-10-11T09:31:29.476Z</time>
      </trkpt>
      <trkpt lat="60.36471" lon="17.64568">
        <ele>82.388318</ele>
        <time>2020-10-11T09:32:39.472Z</time>
      </trkpt>
      <trkpt lat="60.36267" lon="17.64545">
        <ele>82.603702</ele>
        <time>2020-10-11T09:33:36.516Z</time>
      </trkpt>
      <trkpt lat="60.36052" lon="17.64516">
        <ele>79.142697</ele>
        <time>2020-10-11T09:34:16.461Z</time>
      </trkpt>
      <trkpt lat="60.3584" lon="17.64574">
        <ele>81.250301</ele>
        <time>2020-10-11T09:35:08.462Z</time>
      </trkpt>
      <trkpt lat="60.3563" lon="17.6445">
        <ele>78.177389</ele>
        <time>2020-10-11T09:35:51.484Z</time>
      </trkpt>
      <trkpt lat="60.35413" lon="17.64353">
        <ele>71.946714</ele>
        <time>2020-10-11T09:36:39.497Z</time>
      </trkpt>
      <trkpt lat="60.35225" lon="17.64222">
        <ele>73.391312</ele>
        <time>2020-10-11T09:37:35.465Z</time>
      </trkpt>
      <trkpt lat="60.35054" lon="17.63987">
        <ele>79.919013</ele>
        <time>2020-10-11T09:38:32.468Z</time>
      </trkpt>
      <trkpt lat="60.34858" lon="17.64093">
        <ele>76.598019</ele>
        <time>2020-10-11T09:39:31.474Z</time>
      </trkpt>
      <trkpt lat="60.34678" lon="17.64278">
        <ele>81.145007</ele>
        <time>2020-10-11T09:40:31.505Z</time>
      </trkpt>
      <trkpt lat="60.34461" lon="17.6421">
        <ele>82.294773</ele>
        <time>2020-10-11T09:41:20.453Z</time>
      </trkpt>
      <trkpt lat="60.3425" lon="17.64134">
        <ele>81.949408</ele>
        <time>2020-10-11T09:42:02.463Z</time>
      </trkpt>
      <trkpt lat="60.34036" lon="17.63987">
        <ele>87.373585</ele>
        <time>2020-10-11T09:42:49.455Z</time>
      </trkpt>
      <trkpt lat="60.33816" lon="17.63846">
        <ele>79.81006</ele>
        <time>2020-10-11T09:43:48.453Z</time>
      </trkpt>
      <trkpt lat="60.33662" lon="17.63579">
        <ele>73.050288</ele>
        <time>2020-10-11T09:44:55.492Z</time>
      </trkpt>
      <trkpt lat="60.33641" lon="17.6312">
        <ele>64.164387</ele>
        <time>2020-10-11T09:45:41.449Z</time>
      </trkpt>
      <trkpt lat="60.33551" lon="17.62743">
        <ele>78.656979</ele>
        <time>2020-10-11T09:46:33.459Z</time>
      </trkpt>
      <trkpt lat="60.33373" lon="17.62504">
        <ele>84.544256</ele>
        <time>2020-10-11T09:47:29.515Z</time>
      </trkpt>
      <trkpt lat="60.3318" lon="17.62395">
        <ele>81.295562</ele>
        <time>2020-10-11T09:48:41.456Z</time>
      </trkpt>
      <trkpt lat="60.32971" lon="17.62355">
        <ele>74.743946</ele>
        <time>2020-10-11T09:49:34.485Z</time>
      </trkpt>
      <trkpt lat="60.32761" lon="17.6229">
        <ele>76.70904</ele>
        <time>2020-10-11T09:50:39.474Z</time>
      </trkpt>
      <trkpt lat="60.32543" lon="17.62225">
        <ele>80.390309</ele>
        <time>2020-10-11T09:51:37.459Z</time>
      </trkpt>
      <trkpt lat="60.32288" lon="17.62254">
        <ele>74.72894</ele>
        <time>2020-10-11T09:52:17.605Z</time>
      </trkpt>
      <trkpt lat="60.32082" lon="17.62249">
        <ele>68.186562</ele>
        <time>2020-10-11T09:53:01.495Z</time>
      </trkpt>
      <trkpt lat="60.31988" lon="17.61854">
        <ele>73.540484</ele>
        <time>2020-10-11T09:53:58.499Z</time>
      </trkpt>
      <trkpt lat="60.31831" lon="17.61539">
        <ele>72.357311</ele>
        <time>2020-10-11T09:54:56.492Z</time>
      </trkpt>
      <trkpt lat="60.31653" lon="17.61347">
        <ele>68.175506</ele>
        <time>2020-10-11T09:55:54.474Z</time>
      </trkpt>
      <trkpt lat="60.3143" lon="17.61376">
        <ele>74.745841</ele>
        <time>2020-10-11T09:56:46.465Z</time>
      </trkpt>
      <trkpt lat="60.31227" lon="17.61295">
        <ele>81.654349</ele>
        <time>2020-10-11T09:57:33.471Z</time>
      </trkpt>
      <trkpt lat="60.31039" lon="17.61076">
        <ele>67.147502</ele>
        <time>2020-10-11T09:58:37.459Z</time>
      </trkpt>
      <trkpt lat="60.3082" lon="17.61164">
        <ele>68.508156</ele>
        <time>2020-10-11T09:59:40.459Z</time>
      </trkpt>
      <trkpt lat="60.30643" lon="17.612">
        <ele>75.920703</ele>
        <time>2020-10-11T10:00:53.466Z</time>
      </trkpt>
      <trkpt lat="60.3048" lon="17.61179">
        <ele>78.819015</ele>
        <time>2020-10-11T10:01:58.475Z</time>
      </trkpt>
      <trkpt lat="60.30333" lon="17.61513">
        <ele>80.785269</ele>
        <time>2020-10-11T10:03:04.472Z</time>
      </trkpt>
      <trkpt lat="60.30117" lon="17.61674">
        <ele>88.633003</ele>
        <time>2020-10-11T10:04:07.482Z</time>
      </trkpt>
      <trkpt lat="60.29892" lon="17.61617">
        <ele>88.156299</ele>
        <time>2020-10-11T10:05:02.478Z</time>
      </trkpt>
      <trkpt lat="60.29702" lon="17.61398">
        <ele>82.925159</ele>
        <time>2020-10-11T10:06:00.466Z</time>
      </trkpt>
      <trkpt lat="60.29531" lon="17.61169">
        <ele>81.81469</ele>
        <time>2020-10-11T10:06:46.476Z</time>
      </trkpt>
      <trkpt lat="60.29332" lon="17.60913">
        <ele>74.901972</ele>
        <time>2020-10-11T10:07:28.483Z</time>
      </trkpt>
      <trkpt lat="60.29146" lon="17.60656">
        <ele>76.618586</ele>
        <time>2020-10-11T10:08:22.466Z</time>
      </trkpt>
      <trkpt lat="60.28956" lon="17.60422">
        <ele>78.308085</ele>
        <time>2020-10-11T10:09:22.495Z</time>
      </trkpt>
      <trkpt lat="60.28764" lon="17.60212">
        <ele>84.484801</ele>
        <time>2020-10-11T10:10:31.459Z</time>
      </trkpt>
      <trkpt lat="60.28565" lon="17.60151">
        <ele>78.878826</ele>
        <time>2020-10-11T10:11:36.485Z</time>
      </trkpt>
      <trkpt lat="60.28352" lon="17.60203">
        <ele>82.293906</ele>
        <time>2020-10-11T10:12:47.488Z</time>
      </trkpt>
      <trkpt lat="60.28139" lon="17.60215">
        <ele>87.844512</ele>
        <time>2020-10-11T10:13:48.512Z</time>
      </trkpt>
      <trkpt lat="60.27921" lon="17.60197">
        <ele>87.435676</ele>
        <time>2020-10-11T10:14:39.470Z</time>
      </trkpt>
      <trkpt lat="60.27706" lon="17.60224">
        <ele>79.258039</ele>
        <time>2020-10-11T10:15:19.471Z</time>
      </trkpt>
      <trkpt lat="60.2749" lon="17.60281">
        <ele>80.095432</ele>
        <time>2020-10-11T10:16:06.477Z</time>
      </trkpt>
      <trkpt lat="60.27291" lon="17.60332">
        <ele>80.869103</ele>
        <time>2020-10-11T10:16:55.502Z</time>
      </trkpt>
      <trkpt lat="60.27128" lon="17.60265">
        <ele>78.659451</ele>
        <time>2020-10-11T10:17:45.487Z</time>
      </trkpt>
      <trkpt lat="60.26986" lon="17.60052">
        <ele>68.909232</ele>
        <time>2020-10-11T10:18:39.480Z</time>
      </trkpt>
      <trkpt lat="60.26742" lon="17.60136">
        <ele>67.12268</ele>
        <time>2020-10-11T10:19:39.475Z</time>
      </trkpt>
      <trkpt lat="60.26538" lon="17.6004">
        <ele>69.092809</ele>
        <time>2020-10-11T10:20:31.486Z</time>
      </trkpt>
      <trkpt lat="60.26332" lon="17.59851">
        <ele>62.63753</ele>
        <time>2020-10-11T10:21:30.473Z</time>
      </trkpt>
      <trkpt lat="60.26136" lon="17.59676">
        <ele>67.736785</ele>
        <time>2020-10-11T10:22:41.477Z</time>
      </trkpt>
      <trkpt lat="60.25926" lon="17.59576">
        <ele>78.391249</ele>
        <time>2020-10-11T10:23:58.478Z</time>
      </trkpt>
      <trkpt lat="60.25727" lon="17.59522">
        <ele>79.936186</ele>
        <time>2020-10-11T10:25:12.478Z</time>
      </trkpt>
      <trkpt lat="60.25511" lon="17.5951">
        <ele>76.657829</ele>
        <time>2020-10-11T10:26:14.497Z</time>
      </trkpt>
      <trkpt lat="60.25328" lon="17.59638">
        <ele>75.555252</ele>
        <time>2020-10-11T10:27:14.501Z</time>
      </trkpt>
      <trkpt lat="60.2513" lon="17.59737">
        <ele>77.268975</ele>
        <time>2020-10-11T10:28:19.487Z</time>
      </trkpt>
      <trkpt lat="60.24978" lon="17.60063">
        <ele>81.676877</ele>
        <time>2020-10-11T10:29:16.486Z</time>
      </trkpt>
      <trkpt lat="60.24795" lon="17.60324">
        <ele>85.930275</ele>
        <time>2020-10-11T10:30:06.474Z</time>
      </trkpt>
      <trkpt lat="60.24596" lon="17.60302">
        <ele>77.77613</ele>
        <time>2020-10-11T10:30:58.484Z</time>
      </trkpt>
      <trkpt lat="60.2438" lon="17.60311">
        <ele>63.905957</ele>
        <time>2020-10-11T10:31:54.500Z</time>
      </trkpt>
      <trkpt lat="60.24194" lon="17.60591">
        <ele>68.172345</ele>
        <time>2020-10-11T10:32:57.502Z</time>
      </trkpt>
      <trkpt lat="60.23988" lon="17.60777">
        <ele>71.527796</ele>
        <time>2020-10-11T10:33:44.483Z</time>
      </trkpt>
      <trkpt lat="60.23807" lon="17.60939">
        <ele>65.357996</ele>
        <time>2020-10-11T10:34:43.479Z</time>
      </trkpt>
      <trkpt lat="60.23717" lon="17.60592">
        <ele>68.42306</ele>
        <time>2020-10-11T10:35:53.497Z</time>
      </trkpt>
      <trkpt lat="60.23686" lon="17.60142">
        <ele>66.552475</ele>
        <time>2020-10-11T10:37:03.505Z</time>
      </trkpt>
      <trkpt lat="60.23578" lon="17.59967">
        <ele>69.494808</ele>
        <time>2020-10-11T10:38:11.484Z</time>
      </trkpt>
      <trkpt lat="60.23399" lon="17.59886">
        <ele>66.522303</ele>
        <time>2020-10-11T10:39:13.494Z</time>
      </trkpt>
      <trkpt lat="60.23396" lon="17.59478">
        <ele>67.338834</ele>
        <time>2020-10-11T10:40:16.498Z</time>
      </trkpt>
      <trkpt lat="60.23264" lon="17.59158">
        <ele>73.178206</ele>
        <time>2020-10-11T10:41:43.467Z</time>
      </trkpt>
      <trkpt lat="60.23074" lon="17.59027">
        <ele>77.176435</ele>
        <time>2020-10-11T10:42:35.489Z</time>
      </trkpt>
      <trkpt lat="60.22872" lon="17.59008">
        <ele>79.872498</ele>
        <time>2020-10-11T10:43:37.491Z</time>
      </trkpt>
      <trkpt lat="60.22684" lon="17.58757">
        <ele>73.367431</ele>
        <time>2020-10-11T10:44:27.492Z</time>
      </trkpt>
      <trkpt lat="60.22483" lon="17.5863">
        <ele>71.638628</ele>
        <time>2020-10-11T10:45:26.497Z</time>
      </trkpt>
      <trkpt lat="60.22298" lon="17.58427">
        <ele>69.944328</ele>
        <time>2020-10-11T10:46:22.512Z</time>
      </trkpt>
      <trkpt lat="60.22167" lon="17.58088">
        <ele>69.94645</ele>
        <time>2020-10-11T10:47:13.478Z</time>
      </trkpt>
      <trkpt lat="60.22127" lon="17.57654">
        <ele>72.537572</ele>
        <time>2020-10-11T10:48:24.495Z</time>
      </trkpt>
      <trkpt lat="60.22029" lon="17.57258">
        <ele>74.300281</ele>
        <time>2020-10-11T10:49:27.485Z</time>
      </trkpt>
      <trkpt lat="60.21835" lon="17.57014">
        <ele>77.572142</ele>
        <time>2020-10-11T10:50:31.488Z</time>
      </trkpt>
      <trkpt lat="60.21653" lon="17.56816">
        <ele>81.757845</ele>
        <time>2020-10-11T10:51:42.491Z</time>
      </trkpt>
      <trkpt lat="60.21605" lon="17.56418">
        <ele>83.866102</ele>
        <time>2020-10-11T10:52:45.467Z</time>
      </trkpt>
      <trkpt lat="60.21443" lon="17.56167">
        <ele>83.373813</ele>
        <time>2020-10-11T10:53:34.474Z</time>
      </trkpt>
      <trkpt lat="60.21256" lon="17.55995">
        <ele>90.603866</ele>
        <time>2020-10-11T10:54:33.479Z</time>
      </trkpt>
      <trkpt lat="60.21018" lon="17.56058">
        <ele>73.908955</ele>
        <time>2020-10-11T10:55:27.478Z</time>
      </trkpt>
      <trkpt lat="60.20798" lon="17.56152">
        <ele>69.056869</ele>
        <time>2020-10-11T10:56:27.479Z</time>
      </trkpt>
      <trkpt lat="60.20573" lon="17.56092">
        <ele>66.959148</ele>
        <time>2020-10-11T11:16:13.484Z</time>
      </trkpt>
      <trkpt lat="60.2036" lon="17.56034">
        <ele>67.019839</ele>
        <time>2020-10-11T11:17:14.490Z</time>
      </trkpt>
      <trkpt lat="60.2014" lon="17.55941">
        <ele>65.763196</ele>
        <time>2020-10-11T11:18:17.526Z</time>
      </trkpt>
      <trkpt lat="60.19933" lon="17.56104">
        <ele>63.44007</ele>
        <time>2020-10-11T11:19:17.479Z</time>
      </trkpt>
      <trkpt lat="60.19727" lon="17.56036">
        <ele>61.764383</ele>
        <time>2020-10-11T11:20:17.491Z</time>
      </trkpt>
      <trkpt lat="60.19522" lon="17.56159">
        <ele>61.350452</ele>
        <time>2020-10-11T11:21:15.483Z</time>
      </trkpt>
      <trkpt lat="60.19309" lon="17.56356">
        <ele>61.689441</ele>
        <time>2020-10-11T11:22:20.503Z</time>
      </trkpt>
      <trkpt lat="60.19088" lon="17.56526">
        <ele>58.607692</ele>
        <time>2020-10-11T11:23:19.491Z</time>
      </trkpt>
      <trkpt lat="60.18868" lon="17.56517">
        <ele>59.134634</ele>
        <time>2020-10-11T11:24:16.481Z</time>
      </trkpt>
      <trkpt lat="60.18659" lon="17.56628">
        <ele>59.486941</ele>
        <time>2020-10-11T11:25:08.484Z</time>
      </trkpt>
      <trkpt lat="60.18458" lon="17.56734">
        <ele>58.169075</ele>
        <time>2020-10-11T11:26:09.485Z</time>
      </trkpt>
      <trkpt lat="60.1824" lon="17.56615">
        <ele>56.134644</ele>
        <time>2020-10-11T11:27:06.489Z</time>
      </trkpt>
      <trkpt lat="60.18016" lon="17.56489">
        <ele>55.90008</ele>
        <time>2020-10-11T11:28:04.494Z</time>
      </trkpt>
      <trkpt lat="60.17789" lon="17.56375">
        <ele>54.701965</ele>
        <time>2020-10-11T11:29:01.488Z</time>
      </trkpt>
      <trkpt lat="60.17597" lon="17.56574">
        <ele>56.051292</ele>
        <time>2020-10-11T11:30:02.514Z</time>
      </trkpt>
      <trkpt lat="60.1736" lon="17.56558">
        <ele>53.374118</ele>
        <time>2020-10-11T11:31:00.509Z</time>
      </trkpt>
      <trkpt lat="60.17123" lon="17.56549">
        <ele>51.661345</ele>
        <time>2020-10-11T11:31:57.506Z</time>
      </trkpt>
      <trkpt lat="60.16931" lon="17.56768">
        <ele>52.131677</ele>
        <time>2020-10-11T11:32:53.478Z</time>
      </trkpt>
      <trkpt lat="60.16707" lon="17.5667">
        <ele>52.852702</ele>
        <time>2020-10-11T11:33:52.514Z</time>
      </trkpt>
      <trkpt lat="60.16502" lon="17.56618">
        <ele>53.269138</ele>
        <time>2020-10-11T11:34:49.491Z</time>
      </trkpt>
      <trkpt lat="60.16344" lon="17.56738">
        <ele>51.136669</ele>
        <time>2020-10-11T11:35:47.491Z</time>
      </trkpt>
      <trkpt lat="60.1614" lon="17.5679">
        <ele>50.721605</ele>
        <time>2020-10-11T11:36:47.488Z</time>
      </trkpt>
      <trkpt lat="60.15968" lon="17.56868">
        <ele>54.687346</ele>
        <time>2020-10-11T11:38:00.494Z</time>
      </trkpt>
      <trkpt lat="60.15816" lon="17.56523">
        <ele>54.348444</ele>
        <time>2020-10-11T11:38:48.479Z</time>
      </trkpt>
      <trkpt lat="60.15631" lon="17.56449">
        <ele>52.15985</ele>
        <time>2020-10-11T11:39:44.506Z</time>
      </trkpt>
      <trkpt lat="60.1548" lon="17.56796">
        <ele>48.638554</ele>
        <time>2020-10-11T11:40:41.485Z</time>
      </trkpt>
      <trkpt lat="60.1528" lon="17.5704">
        <ele>47.75496</ele>
        <time>2020-10-11T11:41:41.492Z</time>
      </trkpt>
      <trkpt lat="60.15096" lon="17.57346">
        <ele>49.768815</ele>
        <time>2020-10-11T11:42:44.513Z</time>
      </trkpt>
      <trkpt lat="60.14905" lon="17.57539">
        <ele>49.885217</ele>
        <time>2020-10-11T11:43:44.488Z</time>
      </trkpt>
      <trkpt lat="60.14684" lon="17.57445">
        <ele>48.574178</ele>
        <time>2020-10-11T11:44:36.495Z</time>
      </trkpt>
      <trkpt lat="60.14487" lon="17.57522">
        <ele>54.432345</ele>
        <time>2020-10-11T11:45:51.501Z</time>
      </trkpt>
      <trkpt lat="60.14292" lon="17.57564">
        <ele>58.275176</ele>
        <time>2020-10-11T11:47:02.499Z</time>
      </trkpt>
      <trkpt lat="60.14077" lon="17.57568">
        <ele>61.412611</ele>
        <time>2020-10-11T11:48:20.537Z</time>
      </trkpt>
      <trkpt lat="60.13869" lon="17.57519">
        <ele>73.053305</ele>
        <time>2020-10-11T11:49:34.492Z</time>
      </trkpt>
      <trkpt lat="60.1366" lon="17.57606">
        <ele>70.444763</ele>
        <time>2020-10-11T11:50:29.500Z</time>
      </trkpt>
      <trkpt lat="60.13445" lon="17.57625">
        <ele>65.398868</ele>
        <time>2020-10-11T11:51:14.579Z</time>
      </trkpt>
      <trkpt lat="60.13221" lon="17.57627">
        <ele>57.392482</ele>
        <time>2020-10-11T11:52:02.502Z</time>
      </trkpt>
      <trkpt lat="60.13007" lon="17.57597">
        <ele>63.967331</ele>
        <time>2020-10-11T11:53:05.508Z</time>
      </trkpt>
      <trkpt lat="60.1278" lon="17.57562">
        <ele>63.575774</ele>
        <time>2020-10-11T11:54:07.508Z</time>
      </trkpt>
      <trkpt lat="60.12566" lon="17.57536">
        <ele>56.774872</ele>
        <time>2020-10-11T11:54:53.513Z</time>
      </trkpt>
      <trkpt lat="60.12324" lon="17.57606">
        <ele>55.992919</ele>
        <time>2020-10-11T11:55:46.493Z</time>
      </trkpt>
      <trkpt lat="60.12123" lon="17.57747">
        <ele>57.140473</ele>
        <time>2020-10-11T11:56:39.508Z</time>
      </trkpt>
      <trkpt lat="60.1193" lon="17.57569">
        <ele>62.144902</ele>
        <time>2020-10-11T11:57:49.519Z</time>
      </trkpt>
      <trkpt lat="60.11707" lon="17.57589">
        <ele>55.55782</ele>
        <time>2020-10-11T11:58:33.524Z</time>
      </trkpt>
      <trkpt lat="60.11457" lon="17.5774">
        <ele>48.811354</ele>
        <time>2020-10-11T11:59:15.499Z</time>
      </trkpt>
      <trkpt lat="60.1125" lon="17.57775">
        <ele>53.224443</ele>
        <time>2020-10-11T12:00:13.566Z</time>
      </trkpt>
      <trkpt lat="60.11053" lon="17.5769">
        <ele>60.069176</ele>
        <time>2020-10-11T12:01:12.530Z</time>
      </trkpt>
      <trkpt lat="60.10849" lon="17.57527">
        <ele>57.963602</ele>
        <time>2020-10-11T12:02:00.507Z</time>
      </trkpt>
      <trkpt lat="60.1063" lon="17.57373">
        <ele>58.944778</ele>
        <time>2020-10-11T12:03:02.501Z</time>
      </trkpt>
      <trkpt lat="60.1048" lon="17.57047">
        <ele>58.027717</ele>
        <time>2020-10-11T12:03:58.506Z</time>
      </trkpt>
      <trkpt lat="60.10352" lon="17.56703">
        <ele>59.162421</ele>
        <time>2020-10-11T12:04:58.509Z</time>
      </trkpt>
      <trkpt lat="60.10268" lon="17.56338">
        <ele>64.115694</ele>
        <time>2020-10-11T12:06:13.497Z</time>
      </trkpt>
      <trkpt lat="60.10151" lon="17.55981">
        <ele>61.350712</ele>
        <time>2020-10-11T12:07:05.500Z</time>
      </trkpt>
      <trkpt lat="60.09915" lon="17.55954">
        <ele>58.707899</ele>
        <time>2020-10-11T12:08:03.496Z</time>
      </trkpt>
      <trkpt lat="60.09683" lon="17.56011">
        <ele>63.693566</ele>
        <time>2020-10-11T12:09:02.506Z</time>
      </trkpt>
      <trkpt lat="60.09481" lon="17.55983">
        <ele>71.802244</ele>
        <time>2020-10-11T12:10:06.511Z</time>
      </trkpt>
      <trkpt lat="60.09281" lon="17.55816">
        <ele>71.434892</ele>
        <time>2020-10-11T12:10:59.512Z</time>
      </trkpt>
      <trkpt lat="60.09112" lon="17.55517">
        <ele>69.097809</ele>
        <time>2020-10-11T12:11:54.518Z</time>
      </trkpt>
      <trkpt lat="60.08927" lon="17.55423">
        <ele>72.528122</ele>
        <time>2020-10-11T12:13:00.514Z</time>
      </trkpt>
      <trkpt lat="60.08754" lon="17.55198">
        <ele>74.668359</ele>
        <time>2020-10-11T12:14:03.525Z</time>
      </trkpt>
      <trkpt lat="60.08568" lon="17.55001">
        <ele>73.383888</ele>
        <time>2020-10-11T12:15:55.542Z</time>
      </trkpt>
      <trkpt lat="60.08373" lon="17.54764">
        <ele>67.474277</ele>
        <time>2020-10-11T12:16:41.525Z</time>
      </trkpt>
      <trkpt lat="60.08183" lon="17.54538">
        <ele>70.059258</ele>
        <time>2020-10-11T12:17:34.512Z</time>
      </trkpt>
      <trkpt lat="60.07998" lon="17.54321">
        <ele>77.128849</ele>
        <time>2020-10-11T12:18:50.508Z</time>
      </trkpt>
      <trkpt lat="60.07795" lon="17.54156">
        <ele>72.150238</ele>
        <time>2020-10-11T12:19:50.516Z</time>
      </trkpt>
      <trkpt lat="60.07563" lon="17.54034">
        <ele>72.448843</ele>
        <time>2020-10-11T12:20:48.497Z</time>
      </trkpt>
      <trkpt lat="60.0733" lon="17.54011">
        <ele>64.720755</ele>
        <time>2020-10-11T12:21:43.538Z</time>
      </trkpt>
      <trkpt lat="60.07079" lon="17.54059">
        <ele>66.197086</ele>
        <time>2020-10-11T12:22:43.508Z</time>
      </trkpt>
      <trkpt lat="60.06852" lon="17.54145">
        <ele>68.118724</ele>
        <time>2020-10-11T12:23:38.518Z</time>
      </trkpt>
      <trkpt lat="60.06628" lon="17.54269">
        <ele>60.684451</ele>
        <time>2020-10-11T12:24:29.494Z</time>
      </trkpt>
      <trkpt lat="60.06378" lon="17.54412">
        <ele>53.870902</ele>
        <time>2020-10-11T12:25:11.547Z</time>
      </trkpt>
      <trkpt lat="60.06336" lon="17.54159">
        <ele>61.297387</ele>
        <time>2020-10-11T12:26:13.510Z</time>
      </trkpt>
      <trkpt lat="60.0613" lon="17.54141">
        <ele>69.234331</ele>
        <time>2020-10-11T12:27:34.521Z</time>
      </trkpt>
      <trkpt lat="60.05956" lon="17.54126">
        <ele>66.26343</ele>
        <time>2020-10-11T12:28:49.537Z</time>
      </trkpt>
      <trkpt lat="60.05735" lon="17.54161">
        <ele>63.659444</ele>
        <time>2020-10-11T12:29:51.543Z</time>
      </trkpt>
      <trkpt lat="60.0554" lon="17.54081">
        <ele>72.398185</ele>
        <time>2020-10-11T12:33:44.526Z</time>
      </trkpt>
      <trkpt lat="60.05421" lon="17.5436">
        <ele>71.570213</ele>
        <time>2020-10-11T12:34:50.554Z</time>
      </trkpt>
      <trkpt lat="60.05425" lon="17.54125">
        <ele>70.576655</ele>
        <time>2020-10-11T12:38:02.525Z</time>
      </trkpt>
      <trkpt lat="60.05218" lon="17.54198">
        <ele>62.662026</ele>
        <time>2020-10-11T12:39:11.516Z</time>
      </trkpt>
      <trkpt lat="60.05005" lon="17.54271">
        <ele>63.903499</ele>
        <time>2020-10-11T12:40:07.526Z</time>
      </trkpt>
      <trkpt lat="60.04797" lon="17.54333">
        <ele>68.077758</ele>
        <time>2020-10-11T12:41:22.516Z</time>
      </trkpt>
      <trkpt lat="60.04583" lon="17.54372">
        <ele>67.673515</ele>
        <time>2020-10-11T12:42:36.507Z</time>
      </trkpt>
      <trkpt lat="60.04385" lon="17.54293">
        <ele>69.768615</ele>
        <time>2020-10-11T12:44:03.510Z</time>
      </trkpt>
      <trkpt lat="60.04173" lon="17.54186">
        <ele>68.034194</ele>
        <time>2020-10-11T12:45:19.515Z</time>
      </trkpt>
      <trkpt lat="60.03971" lon="17.54186">
        <ele>66.567318</ele>
        <time>2020-10-11T12:46:21.559Z</time>
      </trkpt>
      <trkpt lat="60.03762" lon="17.54143">
        <ele>63.990168</ele>
        <time>2020-10-11T12:47:28.508Z</time>
      </trkpt>
      <trkpt lat="60.03552" lon="17.5428">
        <ele>61.582308</ele>
        <time>2020-10-11T12:48:25.508Z</time>
      </trkpt>
      <trkpt lat="60.03483" lon="17.53908">
        <ele>54.160333</ele>
        <time>2020-10-11T12:49:07.522Z</time>
      </trkpt>
      <trkpt lat="60.03394" lon="17.53517">
        <ele>55.044033</ele>
        <time>2020-10-11T12:49:50.511Z</time>
      </trkpt>
      <trkpt lat="60.0323" lon="17.53363">
        <ele>56.546926</ele>
        <time>2020-10-11T12:50:38.513Z</time>
      </trkpt>
      <trkpt lat="60.03019" lon="17.53315">
        <ele>56.079076</ele>
        <time>2020-10-11T12:51:28.517Z</time>
      </trkpt>
      <trkpt lat="60.02802" lon="17.5335">
        <ele>56.990132</ele>
        <time>2020-10-11T12:52:28.523Z</time>
      </trkpt>
      <trkpt lat="60.02592" lon="17.53425">
        <ele>57.231325</ele>
        <time>2020-10-11T12:53:16.524Z</time>
      </trkpt>
      <trkpt lat="60.0241" lon="17.53685">
        <ele>55.994806</ele>
        <time>2020-10-11T12:54:10.510Z</time>
      </trkpt>
      <trkpt lat="60.02202" lon="17.53618">
        <ele>53.36693</ele>
        <time>2020-10-11T12:54:57.543Z</time>
      </trkpt>
      <trkpt lat="60.02014" lon="17.53445">
        <ele>52.929331</ele>
        <time>2020-10-11T12:56:00.516Z</time>
      </trkpt>
      <trkpt lat="60.01819" lon="17.53455">
        <ele>53.086588</ele>
        <time>2020-10-11T12:57:00.527Z</time>
      </trkpt>
      <trkpt lat="60.01613" lon="17.53423">
        <ele>53.542802</ele>
        <time>2020-10-11T12:58:07.517Z</time>
      </trkpt>
      <trkpt lat="60.01409" lon="17.53344">
        <ele>52.47546</ele>
        <time>2020-10-11T12:59:07.525Z</time>
      </trkpt>
      <trkpt lat="60.01211" lon="17.53237">
        <ele>53.641629</ele>
        <time>2020-10-11T13:00:15.527Z</time>
      </trkpt>
      <trkpt lat="60.0101" lon="17.53091">
        <ele>54.722314</ele>
        <time>2020-10-11T13:01:27.528Z</time>
      </trkpt>
      <trkpt lat="60.00796" lon="17.52956">
        <ele>53.661144</ele>
        <time>2020-10-11T13:02:27.541Z</time>
      </trkpt>
      <trkpt lat="60.00621" lon="17.52706">
        <ele>54.22807</ele>
        <time>2020-10-11T13:03:27.525Z</time>
      </trkpt>
      <trkpt lat="60.00512" lon="17.52323">
        <ele>50.700189</ele>
        <time>2020-10-11T13:04:27.564Z</time>
      </trkpt>
      <trkpt lat="60.00393" lon="17.51936">
        <ele>51.764919</ele>
        <time>2020-10-11T13:05:30.543Z</time>
      </trkpt>
      <trkpt lat="60.00238" lon="17.51648">
        <ele>57.507937</ele>
        <time>2020-10-11T13:06:45.557Z</time>
      </trkpt>
      <trkpt lat="60.0004" lon="17.51514">
        <ele>61.798842</ele>
        <time>2020-10-11T13:07:47.539Z</time>
      </trkpt>
      <trkpt lat="59.99859" lon="17.51392">
        <ele>58.577603</ele>
        <time>2020-10-11T13:08:36.515Z</time>
      </trkpt>
      <trkpt lat="59.99622" lon="17.51292">
        <ele>52.494688</ele>
        <time>2020-10-11T13:09:19.511Z</time>
      </trkpt>
      <trkpt lat="59.99523" lon="17.51023">
        <ele>50.925361</ele>
        <time>2020-10-11T13:10:01.530Z</time>
      </trkpt>
      <trkpt lat="59.99593" lon="17.50612">
        <ele>52.529236</ele>
        <time>2020-10-11T13:10:57.546Z</time>
      </trkpt>
      <trkpt lat="59.99571" lon="17.50295">
        <ele>54.544184</ele>
        <time>2020-10-11T13:11:47.536Z</time>
      </trkpt>
      <trkpt lat="59.99413" lon="17.50114">
        <ele>53.561705</ele>
        <time>2020-10-11T13:12:47.538Z</time>
      </trkpt>
      <trkpt lat="59.99271" lon="17.50449">
        <ele>53.803044</ele>
        <time>2020-10-11T13:13:39.511Z</time>
      </trkpt>
      <trkpt lat="59.99086" lon="17.50619">
        <ele>54.633156</ele>
        <time>2020-10-11T13:14:36.521Z</time>
      </trkpt>
      <trkpt lat="59.98904" lon="17.50843">
        <ele>58.178127</ele>
        <time>2020-10-11T13:15:30.515Z</time>
      </trkpt>
      <trkpt lat="59.98699" lon="17.50997">
        <ele>59.26957</ele>
        <time>2020-10-11T13:16:29.508Z</time>
      </trkpt>
      <trkpt lat="59.98502" lon="17.51251">
        <ele>55.795402</ele>
        <time>2020-10-11T13:17:23.535Z</time>
      </trkpt>
      <trkpt lat="59.98377" lon="17.51625">
        <ele>55.895805</ele>
        <time>2020-10-11T13:18:16.531Z</time>
      </trkpt>
      <trkpt lat="59.98196" lon="17.51821">
        <ele>57.055772</ele>
        <time>2020-10-11T13:19:00.525Z</time>
      </trkpt>
      <trkpt lat="59.97997" lon="17.5181">
        <ele>52.63991</ele>
        <time>2020-10-11T13:19:42.568Z</time>
      </trkpt>
      <trkpt lat="59.97791" lon="17.52017">
        <ele>50.598786</ele>
        <time>2020-10-11T13:20:36.550Z</time>
      </trkpt>
      <trkpt lat="59.97639" lon="17.52364">
        <ele>51.430965</ele>
        <time>2020-10-11T13:21:32.525Z</time>
      </trkpt>
      <trkpt lat="59.97461" lon="17.5264">
        <ele>54.0537</ele>
        <time>2020-10-11T13:22:32.553Z</time>
      </trkpt>
      <trkpt lat="59.97266" lon="17.52829">
        <ele>53.481306</ele>
        <time>2020-10-11T13:23:20.525Z</time>
      </trkpt>
      <trkpt lat="59.97066" lon="17.53091">
        <ele>54.262967</ele>
        <time>2020-10-11T13:24:19.519Z</time>
      </trkpt>
      <trkpt lat="59.96912" lon="17.53426">
        <ele>57.061315</ele>
        <time>2020-10-11T13:25:18.554Z</time>
      </trkpt>
      <trkpt lat="59.96756" lon="17.53748">
        <ele>57.075622</ele>
        <time>2020-10-11T13:26:20.513Z</time>
      </trkpt>
      <trkpt lat="59.96525" lon="17.54094">
        <ele>52.654948</ele>
        <time>2020-10-11T13:42:55.521Z</time>
      </trkpt>
      <trkpt lat="59.96329" lon="17.54303">
        <ele>55.293784</ele>
        <time>2020-10-11T13:43:55.555Z</time>
      </trkpt>
      <trkpt lat="59.96155" lon="17.54509">
        <ele>56.606991</ele>
        <time>2020-10-11T13:44:53.543Z</time>
      </trkpt>
      <trkpt lat="59.95954" lon="17.54428">
        <ele>51.132432</ele>
        <time>2020-10-11T13:45:37.503Z</time>
      </trkpt>
      <trkpt lat="59.95739" lon="17.54443">
        <ele>49.154623</ele>
        <time>2020-10-11T13:46:25.530Z</time>
      </trkpt>
      <trkpt lat="59.95522" lon="17.54564">
        <ele>53.848884</ele>
        <time>2020-10-11T13:47:30.533Z</time>
      </trkpt>
      <trkpt lat="59.95296" lon="17.54644">
        <ele>64.736487</ele>
        <time>2020-10-11T13:48:47.513Z</time>
      </trkpt>
      <trkpt lat="59.95096" lon="17.54705">
        <ele>60.315391</ele>
        <time>2020-10-11T13:49:32.511Z</time>
      </trkpt>
      <trkpt lat="59.94894" lon="17.54782">
        <ele>58.592444</ele>
        <time>2020-10-11T13:50:22.527Z</time>
      </trkpt>
      <trkpt lat="59.94723" lon="17.54517">
        <ele>58.647414</ele>
        <time>2020-10-11T13:51:15.518Z</time>
      </trkpt>
      <trkpt lat="59.94523" lon="17.54403">
        <ele>56.823679</ele>
        <time>2020-10-11T13:51:57.519Z</time>
      </trkpt>
      <trkpt lat="59.94301" lon="17.54364">
        <ele>54.990282</ele>
        <time>2020-10-11T13:52:45.522Z</time>
      </trkpt>
      <trkpt lat="59.94119" lon="17.54337">
        <ele>52.247259</ele>
        <time>2020-10-11T13:53:25.526Z</time>
      </trkpt>
      <trkpt lat="59.9395" lon="17.54575">
        <ele>49.819224</ele>
        <time>2020-10-11T13:54:07.510Z</time>
      </trkpt>
      <trkpt lat="59.9378" lon="17.54816">
        <ele>47.884397</ele>
        <time>2020-10-11T13:54:49.563Z</time>
      </trkpt>
      <trkpt lat="59.93636" lon="17.55101">
        <ele>46.909117</ele>
        <time>2020-10-11T13:55:33.512Z</time>
      </trkpt>
      <trkpt lat="59.93502" lon="17.55368">
        <ele>45.302106</ele>
        <time>2020-10-11T13:56:13.538Z</time>
      </trkpt>
      <trkpt lat="59.93331" lon="17.55703">
        <ele>46.354961</ele>
        <time>2020-10-11T13:57:12.556Z</time>
      </trkpt>
      <trkpt lat="59.9318" lon="17.56006">
        <ele>49.038314</ele>
        <time>2020-10-11T13:58:19.552Z</time>
      </trkpt>
      <trkpt lat="59.93023" lon="17.56315">
        <ele>49.271192</ele>
        <time>2020-10-11T13:59:18.546Z</time>
      </trkpt>
      <trkpt lat="59.9287" lon="17.56621">
        <ele>46.404427</ele>
        <time>2020-10-11T14:00:05.536Z</time>
      </trkpt>
      <trkpt lat="59.92671" lon="17.56798">
        <ele>44.499978</ele>
        <time>2020-10-11T14:00:59.558Z</time>
      </trkpt>
      <trkpt lat="59.92456" lon="17.56657">
        <ele>43.481618</ele>
        <time>2020-10-11T14:01:54.559Z</time>
      </trkpt>
      <trkpt lat="59.92214" lon="17.56466">
        <ele>42.241276</ele>
        <time>2020-10-11T14:02:56.538Z</time>
      </trkpt>
      <trkpt lat="59.91978" lon="17.56422">
        <ele>44.914697</ele>
        <time>2020-10-11T14:03:52.534Z</time>
      </trkpt>
      <trkpt lat="59.9178" lon="17.56649">
        <ele>45.256924</ele>
        <time>2020-10-11T14:04:52.536Z</time>
      </trkpt>
      <trkpt lat="59.91635" lon="17.56981">
        <ele>43.853774</ele>
        <time>2020-10-11T14:05:52.521Z</time>
      </trkpt>
      <trkpt lat="59.91539" lon="17.57349">
        <ele>42.538859</ele>
        <time>2020-10-11T14:06:45.540Z</time>
      </trkpt>
      <trkpt lat="59.9134" lon="17.57519">
        <ele>41.014057</ele>
        <time>2020-10-11T14:07:37.570Z</time>
      </trkpt>
      <trkpt lat="59.91326" lon="17.57886">
        <ele>48.262279</ele>
        <time>2020-10-11T14:08:37.545Z</time>
      </trkpt>
      <trkpt lat="59.91192" lon="17.58201">
        <ele>48.114661</ele>
        <time>2020-10-11T14:09:42.533Z</time>
      </trkpt>
      <trkpt lat="59.91086" lon="17.5858">
        <ele>47.376604</ele>
        <time>2020-10-11T14:10:53.533Z</time>
      </trkpt>
      <trkpt lat="59.90971" lon="17.58952">
        <ele>48.153648</ele>
        <time>2020-10-11T14:11:53.532Z</time>
      </trkpt>
      <trkpt lat="59.90843" lon="17.59336">
        <ele>47.908072</ele>
        <time>2020-10-11T14:12:53.527Z</time>
      </trkpt>
      <trkpt lat="59.90803" lon="17.59811">
        <ele>44.824047</ele>
        <time>2020-10-11T14:13:52.533Z</time>
      </trkpt>
      <trkpt lat="59.90951" lon="17.60181">
        <ele>42.442552</ele>
        <time>2020-10-11T14:14:39.526Z</time>
      </trkpt>
      <trkpt lat="59.91139" lon="17.60509">
        <ele>41.72439</ele>
        <time>2020-10-11T14:15:26.524Z</time>
      </trkpt>
      <trkpt lat="59.91036" lon="17.6074">
        <ele>41.564532</ele>
        <time>2020-10-11T14:16:21.529Z</time>
      </trkpt>
      <trkpt lat="59.90805" lon="17.60852">
        <ele>41.559839</ele>
        <time>2020-10-11T14:17:21.536Z</time>
      </trkpt>
      <trkpt lat="59.90614" lon="17.60946">
        <ele>47.119287</ele>
        <time>2020-10-11T14:18:23.526Z</time>
      </trkpt>
      <trkpt lat="59.90431" lon="17.61133">
        <ele>45.342438</ele>
        <time>2020-10-11T14:19:22.581Z</time>
      </trkpt>
      <trkpt lat="59.90345" lon="17.61546">
        <ele>42.396531</ele>
        <time>2020-10-11T14:20:16.518Z</time>
      </trkpt>
      <trkpt lat="59.9023" lon="17.61916">
        <ele>41.871655</ele>
        <time>2020-10-11T14:21:08.538Z</time>
      </trkpt>
      <trkpt lat="59.90105" lon="17.62321">
        <ele>43.019212</ele>
        <time>2020-10-11T14:22:06.544Z</time>
      </trkpt>
      <trkpt lat="59.90103" lon="17.62758">
        <ele>47.200777</ele>
        <time>2020-10-11T14:23:13.535Z</time>
      </trkpt>
      <trkpt lat="59.90126" lon="17.63173">
        <ele>46.510327</ele>
        <time>2020-10-11T14:23:58.567Z</time>
      </trkpt>
      <trkpt lat="59.89941" lon="17.63086">
        <ele>55.262679</ele>
        <time>2020-10-11T14:29:52.529Z</time>
      </trkpt>
      <trkpt lat="59.89798" lon="17.63121">
        <ele>54.138779</ele>
        <time>2020-10-11T14:31:05.533Z</time>
      </trkpt>
      <trkpt lat="59.89667" lon="17.62817">
        <ele>50.896942</ele>
        <time>2020-10-11T14:32:05.534Z</time>
      </trkpt>
      <trkpt lat="59.89452" lon="17.6268">
        <ele>51.06085</ele>
        <time>2020-10-11T14:33:12.530Z</time>
      </trkpt>
      <trkpt lat="59.89316" lon="17.62342">
        <ele>46.185258</ele>
        <time>2020-10-11T14:34:05.541Z</time>
      </trkpt>
      <trkpt lat="59.89115" lon="17.62416">
        <ele>51.865277</ele>
        <time>2020-10-11T14:35:09.556Z</time>
      </trkpt>
      <trkpt lat="59.88911" lon="17.62464">
        <ele>47.961178</ele>
        <time>2020-10-11T14:36:00.533Z</time>
      </trkpt>
      <trkpt lat="59.88672" lon="17.62555">
        <ele>47.003763</ele>
        <time>2020-10-11T14:37:01.539Z</time>
      </trkpt>
      <trkpt lat="59.88445" lon="17.62552">
        <ele>41.631684</ele>
        <time>2020-10-11T14:37:52.546Z</time>
      </trkpt>
      <trkpt lat="59.88216" lon="17.62582">
        <ele>47.599203</ele>
        <time>2020-10-11T14:38:53.566Z</time>
      </trkpt>
      <trkpt lat="59.88007" lon="17.62692">
        <ele>50.219696</ele>
        <time>2020-10-11T14:39:38.546Z</time>
      </trkpt>
      <trkpt lat="59.8786" lon="17.62526">
        <ele>49.300632</ele>
        <time>2020-10-11T14:40:48.557Z</time>
      </trkpt>
      <trkpt lat="59.87681" lon="17.62437">
        <ele>48.543747</ele>
        <time>2020-10-11T14:42:09.541Z</time>
      </trkpt>
      <trkpt lat="59.87489" lon="17.62459">
        <ele>47.3297</ele>
        <time>2020-10-11T14:43:21.547Z</time>
      </trkpt>
      <trkpt lat="59.87295" lon="17.62592">
        <ele>43.66939</ele>
        <time>2020-10-11T14:58:04.543Z</time>
      </trkpt>
      <trkpt lat="59.87071" lon="17.62717">
        <ele>45.367629</ele>
        <time>2020-10-11T14:59:01.534Z</time>
      </trkpt>
      <trkpt lat="59.86847" lon="17.62839">
        <ele>38.975667</ele>
        <time>2020-10-11T15:00:16.570Z</time>
      </trkpt>
      <trkpt lat="59.8665" lon="17.62992">
        <ele>34.375552</ele>
        <time>2020-10-11T15:01:08.585Z</time>
      </trkpt>
      <trkpt lat="59.86452" lon="17.63036">
        <ele>39.575081</ele>
        <time>2020-10-11T15:02:10.552Z</time>
      </trkpt>
      <trkpt lat="59.86256" lon="17.63093">
        <ele>47.66959</ele>
        <time>2020-10-11T15:03:20.542Z</time>
      </trkpt>
      <trkpt lat="59.86074" lon="17.62887">
        <ele>63.576666</ele>
        <time>2020-10-11T15:04:34.564Z</time>
      </trkpt>
      <trkpt lat="59.8594" lon="17.62563">
        <ele>49.987401</ele>
        <time>2020-10-11T15:05:43.572Z</time>
      </trkpt>
      <trkpt lat="59.85792" lon="17.62449">
        <ele>49.675504</ele>
        <time>2020-10-11T15:07:05.540Z</time>
      </trkpt>
      <trkpt lat="59.85643" lon="17.62224">
        <ele>50.424618</ele>
        <time>2020-10-11T15:08:23.572Z</time>
      </trkpt>
      <trkpt lat="59.85632" lon="17.61926">
        <ele>62.042685</ele>
        <time>2020-10-11T15:09:38.559Z</time>
      </trkpt>
      <trkpt lat="59.85614" lon="17.61842">
        <ele>64.76557</ele>
        <time>2020-10-11T15:11:08.563Z</time>
      </trkpt>
    </trkseg>
  </trk>
</gpx>